createdAt,value
2023-12-11T00:00:51.453Z,90.19
2023-12-11T00:03:39.979Z,89.91
2023-12-11T00:06:08.965Z,90.38
2023-12-11T00:08:37.348Z,90.46
2023-12-11T00:11:05.716Z,90.59
2023-12-11T00:13:34.099Z,90.76
2023-12-11T00:16:02.421Z,90.85
2023-12-11T00:18:31.006Z,90.86
2023-12-11T00:21:01.486Z,90.93
2023-12-11T00:23:30.271Z,90.82
2023-12-11T00:25:59.284Z,90.90
2023-12-11T00:28:27.545Z,91.18
2023-12-11T00:30:55.950Z,91.66
2023-12-11T00:33:24.408Z,92.03
2023-12-11T00:35:52.987Z,92.83
2023-12-11T00:38:21.363Z,93.05
2023-12-11T00:40:49.763Z,92.97
2023-12-11T00:43:19.594Z,93.58
2023-12-11T00:45:47.939Z,93.71
2023-12-11T00:48:16.380Z,93.57
2023-12-11T00:50:44.788Z,93.30
2023-12-11T00:53:13.064Z,93.13
2023-12-11T00:55:41.441Z,93.17
2023-12-11T00:58:10.478Z,93.11
2023-12-11T01:00:38.949Z,92.82
2023-12-11T01:03:07.561Z,92.65
2023-12-11T01:05:36.083Z,92.58
2023-12-11T01:08:04.838Z,92.08
2023-12-11T01:10:33.155Z,91.65
2023-12-11T01:13:01.577Z,91.78
2023-12-11T01:15:29.940Z,92.25
2023-12-11T01:17:58.338Z,92.11
2023-12-11T01:20:26.759Z,91.97
2023-12-11T01:22:55.133Z,91.90
2023-12-11T01:25:23.621Z,91.71
2023-12-11T01:27:51.932Z,91.96
2023-12-11T01:30:21.101Z,92.15
2023-12-11T01:32:49.617Z,91.80
2023-12-11T01:35:18.050Z,91.51
2023-12-11T01:37:46.333Z,90.68
2023-12-11T01:40:14.813Z,90.66
2023-12-11T01:42:43.242Z,90.56
2023-12-11T01:45:11.972Z,90.47
2023-12-11T01:47:40.968Z,90.44
2023-12-11T01:50:09.966Z,90.65
2023-12-11T01:52:39.154Z,90.78
2023-12-11T01:55:08.210Z,90.15
2023-12-11T01:57:36.693Z,90.30
2023-12-11T02:00:07.109Z,90.58
2023-12-11T02:02:36.668Z,90.44
2023-12-11T02:05:05.896Z,90.27
2023-12-11T02:07:34.445Z,90.11
2023-12-11T02:10:02.987Z,89.83
2023-12-11T02:12:31.331Z,89.65
2023-12-11T02:14:59.782Z,89.44
2023-12-11T02:17:28.468Z,89.69
2023-12-11T02:19:56.998Z,89.61
2023-12-11T02:22:26.266Z,89.41
2023-12-11T02:25:01.997Z,89.46
2023-12-11T02:27:31.761Z,89.76
2023-12-11T02:30:00.506Z,89.72
2023-12-11T02:32:28.942Z,89.42
2023-12-11T02:34:57.499Z,89.43
2023-12-11T02:37:25.843Z,89.48
2023-12-11T02:39:54.270Z,89.34
2023-12-11T02:42:22.905Z,89.43
2023-12-11T02:44:51.178Z,89.43
2023-12-11T02:47:19.449Z,89.36
2023-12-11T02:49:47.903Z,89.54
2023-12-11T02:52:16.419Z,89.63
2023-12-11T02:54:44.915Z,89.66
2023-12-11T02:57:13.134Z,89.64
2023-12-11T02:59:41.460Z,90.20
2023-12-11T03:02:09.827Z,89.86
2023-12-11T03:04:38.432Z,89.71
2023-12-11T03:07:07.023Z,89.83
2023-12-11T03:09:35.399Z,90.46
2023-12-11T03:12:04.298Z,90.09
2023-12-11T03:14:32.537Z,90.25
2023-12-11T03:17:00.916Z,91.62
2023-12-11T03:19:29.401Z,91.01
2023-12-11T03:21:57.999Z,91.02
2023-12-11T03:24:26.354Z,91.42
2023-12-11T03:26:54.741Z,91.01
2023-12-11T03:29:22.955Z,91.19
2023-12-11T03:31:51.101Z,91.47
2023-12-11T03:34:19.381Z,91.50
2023-12-11T03:36:48.073Z,91.33
2023-12-11T03:39:16.934Z,91.26
2023-12-11T03:41:46.344Z,91.07
2023-12-11T03:44:14.713Z,91.12
2023-12-11T03:46:43.004Z,90.89
2023-12-11T03:49:11.624Z,91.08
2023-12-11T03:51:39.996Z,90.98
2023-12-11T03:54:08.841Z,90.52
2023-12-11T03:56:37.117Z,90.57
2023-12-11T03:59:05.389Z,90.18
2023-12-11T04:01:34.070Z,90.30
2023-12-11T04:04:02.779Z,90.31
2023-12-11T04:06:31.896Z,90.43
2023-12-11T04:09:00.439Z,90.57
2023-12-11T04:11:28.716Z,90.48
2023-12-11T04:13:57.094Z,90.76
2023-12-11T04:16:25.369Z,90.68
2023-12-11T04:18:55.329Z,90.42
2023-12-11T04:21:24.375Z,90.24
2023-12-11T04:23:52.656Z,90.26
2023-12-11T04:26:20.933Z,90.39
2023-12-11T04:28:49.312Z,90.19
2023-12-11T04:31:17.987Z,90.25
2023-12-11T04:33:46.551Z,90.44
2023-12-11T04:36:15.079Z,90.43
2023-12-11T04:38:43.340Z,90.26
2023-12-11T04:41:12.217Z,90.31
2023-12-11T04:43:40.505Z,90.24
2023-12-11T04:46:08.869Z,90.52
2023-12-11T04:48:37.612Z,90.41
2023-12-11T04:51:06.145Z,90.62
2023-12-11T04:53:34.548Z,90.25
2023-12-11T04:56:09.876Z,90.36
2023-12-11T04:58:38.146Z,90.81
2023-12-11T05:01:06.976Z,91.01
2023-12-11T05:03:35.563Z,92.05
2023-12-11T05:06:04.610Z,92.07
2023-12-11T05:08:33.098Z,92.12
2023-12-11T05:11:01.459Z,91.49
2023-12-11T05:13:29.735Z,91.99
2023-12-11T05:15:58.261Z,92.15
2023-12-11T05:18:26.706Z,92.53
2023-12-11T05:20:55.184Z,92.82
2023-12-11T05:23:23.554Z,92.57
2023-12-11T05:25:51.931Z,92.93
2023-12-11T05:28:20.495Z,93.24
2023-12-11T05:30:48.808Z,92.84
2023-12-11T05:33:17.324Z,92.23
2023-12-11T05:35:45.751Z,92.40
2023-12-11T05:38:14.036Z,92.93
2023-12-11T05:40:42.557Z,92.46
2023-12-11T05:43:11.062Z,92.67
2023-12-11T05:45:39.407Z,92.61
2023-12-11T05:48:09.124Z,92.15
2023-12-11T05:50:39.599Z,91.79
2023-12-11T05:53:09.627Z,91.94
2023-12-11T05:55:38.317Z,91.73
2023-12-11T05:58:06.677Z,91.59
2023-12-11T06:00:35.466Z,91.47
2023-12-11T06:03:04.056Z,91.28
2023-12-11T06:05:32.710Z,91.36
2023-12-11T06:08:01.127Z,91.46
2023-12-11T06:10:30.870Z,91.32
2023-12-11T06:12:59.489Z,91.49
2023-12-11T06:15:28.338Z,91.57
2023-12-11T06:17:56.811Z,91.14
2023-12-11T06:20:25.374Z,91.05
2023-12-11T06:22:53.648Z,91.03
2023-12-11T06:25:21.986Z,91.06
2023-12-11T06:27:52.794Z,91.12
2023-12-11T06:30:22.469Z,90.92
2023-12-11T06:32:50.871Z,90.61
2023-12-11T06:35:19.345Z,90.66
2023-12-11T06:37:47.705Z,90.48
2023-12-11T06:40:16.171Z,90.30
2023-12-11T06:42:44.721Z,90.57
2023-12-11T06:45:13.871Z,90.35
2023-12-11T06:47:42.750Z,90.14
2023-12-11T06:50:11.120Z,89.93
2023-12-11T06:52:39.831Z,90.15
2023-12-11T06:55:09.067Z,89.88
2023-12-11T06:57:37.433Z,89.52
2023-12-11T07:00:07.786Z,89.36
2023-12-11T07:02:36.280Z,89.38
2023-12-11T07:05:05.401Z,89.44
2023-12-11T07:07:34.238Z,89.31
2023-12-11T07:10:06.158Z,89.04
2023-12-11T07:12:35.184Z,89.24
2023-12-11T07:15:03.826Z,89.29
2023-12-11T07:17:35.453Z,89.17
2023-12-11T07:20:06.941Z,89.38
2023-12-11T07:22:36.235Z,89.51
2023-12-11T07:25:06.361Z,89.18
2023-12-11T07:27:35.543Z,88.93
2023-12-11T07:30:05.706Z,88.94
2023-12-11T07:32:34.076Z,89.02
2023-12-11T07:35:02.661Z,89.58
2023-12-11T07:37:31.538Z,89.25
2023-12-11T07:40:00.630Z,89.35
2023-12-11T07:42:29.501Z,90.08
2023-12-11T07:44:57.877Z,89.80
2023-12-11T07:47:26.427Z,90.03
2023-12-11T07:49:54.768Z,90.04
2023-12-11T07:52:23.427Z,89.07
2023-12-11T07:54:51.808Z,89.53
2023-12-11T07:57:20.280Z,89.47
2023-12-11T07:59:48.764Z,89.32
2023-12-11T08:02:17.075Z,89.21
2023-12-11T08:04:46.031Z,88.83
2023-12-11T08:07:18.439Z,88.72
2023-12-11T08:09:46.923Z,89.13
2023-12-11T08:12:15.383Z,89.08
2023-12-11T08:14:43.683Z,89.14
2023-12-11T08:17:12.165Z,88.98
2023-12-11T08:19:40.753Z,89.22
2023-12-11T08:22:09.207Z,88.86
2023-12-11T08:24:38.101Z,89.14
2023-12-11T08:27:08.850Z,89.04
2023-12-11T08:29:38.232Z,88.95
2023-12-11T08:32:10.110Z,88.66
2023-12-11T08:34:39.575Z,88.52
2023-12-11T08:37:09.976Z,88.23
2023-12-11T08:39:39.640Z,88.27
2023-12-11T08:42:08.112Z,87.75
2023-12-11T08:44:36.473Z,86.62
2023-12-11T08:47:04.948Z,84.86
2023-12-11T08:49:33.346Z,84.65
2023-12-11T08:52:03.553Z,85.92
2023-12-11T08:54:31.929Z,85.38
2023-12-11T08:57:00.217Z,83.96
2023-12-11T08:59:28.702Z,83.06
2023-12-11T09:01:57.286Z,82.94
2023-12-11T09:04:25.902Z,82.70
2023-12-11T09:06:54.368Z,82.24
2023-12-11T09:09:22.607Z,81.05
2023-12-11T09:11:51.231Z,81.08
2023-12-11T09:14:19.585Z,80.83
2023-12-11T09:16:47.951Z,81.37
2023-12-11T09:19:16.362Z,81.96
2023-12-11T09:21:44.848Z,81.53
2023-12-11T09:24:13.806Z,80.80
2023-12-11T09:26:42.182Z,80.87
2023-12-11T09:29:10.657Z,81.14
2023-12-11T09:31:39.547Z,80.73
2023-12-11T09:34:08.378Z,80.88
2023-12-11T09:36:37.064Z,80.68
2023-12-11T09:39:06.024Z,80.59
2023-12-11T09:41:35.993Z,80.21
2023-12-11T09:44:05.025Z,79.77
2023-12-11T09:46:53.270Z,80.07
2023-12-11T09:49:22.347Z,78.98
2023-12-11T09:51:50.750Z,79.44
2023-12-11T09:54:19.216Z,78.99
2023-12-11T09:56:48.591Z,78.93
2023-12-11T09:59:17.409Z,79.12
2023-12-11T10:01:48.374Z,78.51
2023-12-11T10:04:16.751Z,78.76
2023-12-11T10:06:45.056Z,79.56
2023-12-11T10:09:35.138Z,80.01
2023-12-11T10:12:05.371Z,80.55
2023-12-11T10:14:34.816Z,80.19
2023-12-11T10:17:17.175Z,79.78
2023-12-11T10:19:45.675Z,80.04
2023-12-11T10:22:27.998Z,78.40
2023-12-11T10:24:56.713Z,77.69
2023-12-11T10:27:28.713Z,78.94
2023-12-11T10:30:24.582Z,78.23
2023-12-11T10:33:02.885Z,77.55
2023-12-11T10:35:32.919Z,75.99
2023-12-11T10:38:02.821Z,75.86
2023-12-11T10:40:50.757Z,76.12
2023-12-11T10:43:19.995Z,75.71
2023-12-11T10:45:51.777Z,75.45
2023-12-11T10:48:22.771Z,75.64
2023-12-11T10:50:52.049Z,75.11
2023-12-11T10:53:20.811Z,76.33
2023-12-11T10:55:50.969Z,76.50
2023-12-11T10:58:20.848Z,76.50
2023-12-11T11:00:49.465Z,75.88
2023-12-11T11:03:20.020Z,75.78
2023-12-11T11:05:51.617Z,75.57
2023-12-11T11:08:47.377Z,76.61
2023-12-11T11:11:33.250Z,77.62
2023-12-11T11:14:13.939Z,76.97
2023-12-11T11:16:54.842Z,77.39
2023-12-11T11:19:24.081Z,77.92
2023-12-11T11:22:01.638Z,77.83
2023-12-11T11:24:30.430Z,77.03
2023-12-11T11:26:58.909Z,77.33
2023-12-11T11:29:43.518Z,77.14
2023-12-11T11:32:13.168Z,77.81
2023-12-11T11:34:41.405Z,77.96
2023-12-11T11:37:14.862Z,77.40
2023-12-11T11:40:04.475Z,78.03
2023-12-11T11:42:34.525Z,78.28
2023-12-11T11:45:05.540Z,78.45
2023-12-11T11:47:34.336Z,78.70
2023-12-11T11:50:11.418Z,78.46
2023-12-11T11:52:43.462Z,78.95
2023-12-11T11:55:25.575Z,79.09
2023-12-11T11:57:54.735Z,79.52
2023-12-11T12:00:29.473Z,80.12
2023-12-11T12:03:04.724Z,79.76
2023-12-11T12:05:33.194Z,79.24
2023-12-11T12:08:02.134Z,79.25
2023-12-11T12:10:30.449Z,79.78
2023-12-11T12:13:00.378Z,80.12
2023-12-11T12:15:29.351Z,79.88
2023-12-11T12:18:13.957Z,79.68
2023-12-11T12:20:42.423Z,79.61
2023-12-11T12:23:11.564Z,80.27
2023-12-11T12:25:39.864Z,80.54
2023-12-11T12:28:15.194Z,80.74
2023-12-11T12:30:44.171Z,80.69
2023-12-11T12:33:13.708Z,80.33
2023-12-11T12:35:45.431Z,80.71
2023-12-11T12:38:16.010Z,80.77
2023-12-11T12:40:44.350Z,80.77
2023-12-11T12:43:15.813Z,81.05
2023-12-11T12:45:44.298Z,81.54
2023-12-11T12:48:14.062Z,81.26
2023-12-11T12:50:42.530Z,81.54
2023-12-11T12:53:13.912Z,81.89
2023-12-11T12:55:42.269Z,82.18
2023-12-11T12:58:14.853Z,82.13
2023-12-11T13:00:45.857Z,82.27
2023-12-11T13:03:14.568Z,82.37
2023-12-11T13:05:47.171Z,81.98
2023-12-11T13:08:16.282Z,81.97
2023-12-11T13:10:56.612Z,82.06
2023-12-11T13:13:28.316Z,82.49
2023-12-11T13:15:57.833Z,82.46
2023-12-11T13:18:26.725Z,82.37
2023-12-11T13:20:55.446Z,82.38
2023-12-11T13:23:25.238Z,82.80
2023-12-11T13:25:53.455Z,82.72
2023-12-11T13:28:21.758Z,83.20
2023-12-11T13:30:49.873Z,83.52
2023-12-11T13:33:18.163Z,84.47
2023-12-11T13:35:46.484Z,85.23
2023-12-11T13:38:14.842Z,84.71
2023-12-11T13:40:43.246Z,84.40
2023-12-11T13:43:13.008Z,84.03
2023-12-11T13:45:41.496Z,84.11
2023-12-11T13:48:09.911Z,84.71
2023-12-11T13:50:38.240Z,84.42
2023-12-11T13:53:06.391Z,84.85
2023-12-11T13:55:34.586Z,84.82
2023-12-11T13:58:02.846Z,85.52
2023-12-11T14:00:31.175Z,85.80
2023-12-11T14:03:03.749Z,85.75
2023-12-11T14:05:34.597Z,85.01
2023-12-11T14:08:04.521Z,86.57
2023-12-11T14:10:37.011Z,88.17
2023-12-11T14:13:06.218Z,88.21
2023-12-11T14:15:34.786Z,87.74
2023-12-11T14:18:04.781Z,88.78
2023-12-11T14:20:33.056Z,88.07
2023-12-11T14:23:03.696Z,88.86
2023-12-11T14:25:31.883Z,88.92
2023-12-11T14:28:06.102Z,90.15
2023-12-11T14:30:38.376Z,90.72
2023-12-11T14:33:08.252Z,90.67
2023-12-11T14:35:37.544Z,90.58
2023-12-11T14:38:06.100Z,90.82
2023-12-11T14:40:34.542Z,90.35
2023-12-11T14:43:03.681Z,89.91
2023-12-11T14:45:32.148Z,89.16
2023-12-11T14:48:00.450Z,89.93
2023-12-11T14:50:28.733Z,90.10
2023-12-11T14:52:56.914Z,90.82
2023-12-11T14:55:26.196Z,91.03
2023-12-11T14:57:54.929Z,90.56
2023-12-11T15:00:23.321Z,90.78
2023-12-11T15:02:51.572Z,91.27
2023-12-11T15:05:20.651Z,90.97
2023-12-11T15:07:48.979Z,90.56
2023-12-11T15:10:17.240Z,89.44
2023-12-11T15:12:45.443Z,90.08
2023-12-11T15:15:14.065Z,90.39
2023-12-11T15:17:42.253Z,90.64
2023-12-11T15:20:11.713Z,90.83
2023-12-11T15:22:40.067Z,91.33
2023-12-11T15:25:11.118Z,91.18
2023-12-11T15:27:39.370Z,90.36
2023-12-11T15:30:09.467Z,90.38
2023-12-11T15:32:38.024Z,90.52
2023-12-11T15:35:07.162Z,90.42
2023-12-11T15:37:36.054Z,90.65
2023-12-11T15:40:08.492Z,90.23
2023-12-11T15:42:39.372Z,89.47
2023-12-11T15:45:07.965Z,88.95
2023-12-11T15:47:59.827Z,90.69
2023-12-11T15:50:25.662Z,91.95
2023-12-11T15:52:53.946Z,93.11
2023-12-11T15:55:22.236Z,92.02
2023-12-11T15:57:50.588Z,92.87
2023-12-11T16:00:19.102Z,91.86
2023-12-11T16:02:47.666Z,90.57
2023-12-11T16:05:16.210Z,90.15
2023-12-11T16:07:44.698Z,91.11
2023-12-11T16:10:12.933Z,92.19
2023-12-11T16:12:41.188Z,93.09
2023-12-11T16:15:09.984Z,94.36
2023-12-11T16:17:38.178Z,93.93
2023-12-11T16:20:07.385Z,93.57
2023-12-11T16:22:36.186Z,93.58
2023-12-11T16:25:04.731Z,93.25
2023-12-11T16:27:33.256Z,93.01
2023-12-11T16:30:01.666Z,92.59
2023-12-11T16:32:33.082Z,92.00
2023-12-11T16:35:01.778Z,91.34
2023-12-11T16:37:30.168Z,91.44
2023-12-11T16:39:58.531Z,91.54
2023-12-11T16:42:28.751Z,91.35
2023-12-11T16:44:57.189Z,91.09
2023-12-11T16:47:25.335Z,91.17
2023-12-11T16:50:02.083Z,91.17
2023-12-11T16:52:35.198Z,91.19
2023-12-11T16:55:04.050Z,91.53
2023-12-11T16:57:32.468Z,90.90
2023-12-11T17:00:00.733Z,90.53
2023-12-11T17:02:29.618Z,90.23
2023-12-11T17:04:58.056Z,90.19
2023-12-11T17:07:26.450Z,90.45
2023-12-11T17:09:55.550Z,90.64
2023-12-11T17:12:23.708Z,90.41
2023-12-11T17:14:53.982Z,90.38
2023-12-11T17:17:23.483Z,90.79
2023-12-11T17:19:51.792Z,91.06
2023-12-11T17:22:20.090Z,90.50
2023-12-11T17:24:49.494Z,90.09
2023-12-11T17:27:17.788Z,90.91
2023-12-11T17:29:45.971Z,91.37
2023-12-11T17:32:14.398Z,91.33
2023-12-11T17:34:43.357Z,91.59
2023-12-11T17:37:13.634Z,92.10
2023-12-11T17:39:42.326Z,92.18
2023-12-11T17:42:10.676Z,91.95
2023-12-11T17:44:39.057Z,92.50
2023-12-11T17:47:07.328Z,92.71
2023-12-11T17:49:35.737Z,94.56
2023-12-11T17:52:04.738Z,94.54
2023-12-11T17:54:33.488Z,95.05
2023-12-11T17:57:04.880Z,95.19
2023-12-11T17:59:33.221Z,95.02
2023-12-11T18:02:01.567Z,95.09
2023-12-11T18:04:30.074Z,94.96
2023-12-11T18:06:58.468Z,94.66
2023-12-11T18:09:29.395Z,94.96
2023-12-11T18:11:59.708Z,95.54
2023-12-11T18:14:28.304Z,95.25
2023-12-11T18:16:56.767Z,95.04
2023-12-11T18:19:25.308Z,95.19
2023-12-11T18:21:54.336Z,95.44
2023-12-11T18:24:23.245Z,96.04
2023-12-11T18:26:51.519Z,96.67
2023-12-11T18:29:22.278Z,96.94
2023-12-11T18:31:52.471Z,97.19
2023-12-11T18:34:21.346Z,96.80
2023-12-11T18:36:49.689Z,96.43
2023-12-11T18:39:18.116Z,95.45
2023-12-11T18:41:46.905Z,95.07
2023-12-11T18:44:15.186Z,94.69
2023-12-11T18:46:43.558Z,94.97
2023-12-11T18:49:13.966Z,94.87
2023-12-11T18:51:42.475Z,95.07
2023-12-11T18:54:11.560Z,95.53
2023-12-11T18:56:40.449Z,95.59
2023-12-11T18:59:08.729Z,95.85
2023-12-11T19:01:37.158Z,95.82
2023-12-11T19:04:07.521Z,96.05
2023-12-11T19:06:36.236Z,96.57
2023-12-11T19:09:05.373Z,96.88
2023-12-11T19:11:33.696Z,96.63
2023-12-11T19:14:06.881Z,96.50
2023-12-11T19:16:35.157Z,96.56
2023-12-11T19:19:03.565Z,96.43
2023-12-11T19:21:32.020Z,96.85
2023-12-11T19:24:00.921Z,96.50
2023-12-11T19:26:29.211Z,95.95
2023-12-11T19:28:57.884Z,94.69
2023-12-11T19:31:26.808Z,94.04
2023-12-11T19:33:55.421Z,93.52
2023-12-11T19:36:23.828Z,94.55
2023-12-11T19:38:54.686Z,94.37
2023-12-11T19:41:22.933Z,93.82
2023-12-11T19:43:51.526Z,93.19
2023-12-11T19:46:20.135Z,92.64
2023-12-11T19:48:48.654Z,92.79
2023-12-11T19:51:17.061Z,93.17
2023-12-11T19:53:45.338Z,94.07
2023-12-11T19:56:23.649Z,94.07
2023-12-11T19:58:52.760Z,93.43
2023-12-11T20:01:34.569Z,94.00
2023-12-11T20:04:03.447Z,94.44
2023-12-11T20:06:32.520Z,94.21
2023-12-11T20:09:00.809Z,94.87
2023-12-11T20:11:31.937Z,95.06
2023-12-11T20:14:00.738Z,95.10
2023-12-11T20:16:30.686Z,95.20
2023-12-11T20:18:59.331Z,95.30
2023-12-11T20:21:27.827Z,95.24
2023-12-11T20:23:56.084Z,95.28
2023-12-11T20:26:24.820Z,95.39
2023-12-11T20:28:53.151Z,95.24
2023-12-11T20:31:21.474Z,95.15
2023-12-11T20:33:50.197Z,95.21
2023-12-11T20:36:20.174Z,95.53
2023-12-11T20:38:48.820Z,95.41
2023-12-11T20:41:21.795Z,95.67
2023-12-11T20:43:51.880Z,95.19
2023-12-11T20:46:25.148Z,95.67
2023-12-11T20:48:54.938Z,95.95
2023-12-11T20:51:23.916Z,95.51
2023-12-11T20:53:52.802Z,96.61
2023-12-11T20:56:22.419Z,97.14
2023-12-11T20:58:52.433Z,97.16
2023-12-11T21:01:30.715Z,97.02
2023-12-11T21:04:01.084Z,97.27
2023-12-11T21:06:30.869Z,97.47
2023-12-11T21:09:01.085Z,97.34
2023-12-11T21:11:30.192Z,98.02
2023-12-11T21:13:59.899Z,97.87
2023-12-11T21:16:28.539Z,97.51
2023-12-11T21:18:57.279Z,98.02
2023-12-11T21:21:26.671Z,98.23
2023-12-11T21:23:55.353Z,97.86
2023-12-11T21:26:25.032Z,97.10
2023-12-11T21:28:54.526Z,96.08
2023-12-11T21:31:29.898Z,94.80
2023-12-11T21:33:59.121Z,94.93
2023-12-11T21:36:31.045Z,95.18
2023-12-11T21:39:00.540Z,95.55
2023-12-11T21:41:29.061Z,95.56
2023-12-11T21:44:04.471Z,95.31
2023-12-11T21:46:32.729Z,95.48
2023-12-11T21:49:02.765Z,96.39
2023-12-11T21:51:34.015Z,97.07
2023-12-11T21:54:02.734Z,95.94
2023-12-11T21:56:30.998Z,93.73
2023-12-11T21:58:59.584Z,94.56
2023-12-11T22:01:28.031Z,95.50
2023-12-11T22:03:56.445Z,95.48
2023-12-11T22:06:25.141Z,96.06
2023-12-11T22:08:53.507Z,95.65
2023-12-11T22:11:23.426Z,95.56
2023-12-11T22:13:52.203Z,95.43
2023-12-11T22:16:20.373Z,95.33
2023-12-11T22:18:49.041Z,95.69
2023-12-11T22:21:27.895Z,96.08
2023-12-11T22:23:56.264Z,96.48
2023-12-11T22:26:24.399Z,96.80
2023-12-11T22:28:52.819Z,96.45
2023-12-11T22:31:30.955Z,95.74
2023-12-11T22:33:59.569Z,95.84
2023-12-11T22:36:28.000Z,95.70
2023-12-11T22:38:56.263Z,95.61
2023-12-11T22:41:29.390Z,95.49
2023-12-11T22:43:57.941Z,95.24
2023-12-11T22:46:27.266Z,95.41
2023-12-11T22:48:57.723Z,95.14
2023-12-11T22:51:26.147Z,94.99
2023-12-11T22:53:54.517Z,95.28
2023-12-11T22:56:22.797Z,96.61
2023-12-11T22:58:51.095Z,96.63
2023-12-11T23:01:19.650Z,96.65
2023-12-11T23:03:48.566Z,97.27
2023-12-11T23:06:17.123Z,97.04
2023-12-11T23:08:45.650Z,97.52
2023-12-11T23:11:13.989Z,97.61
2023-12-11T23:13:42.263Z,97.04
2023-12-11T23:16:10.452Z,96.70
2023-12-11T23:18:38.954Z,99.62
2023-12-11T23:21:17.640Z,100.00
2023-12-11T23:23:46.976Z,100.00
2023-12-11T23:26:15.424Z,100.00
2023-12-11T23:28:43.920Z,100.00
2023-12-11T23:31:12.356Z,99.83
2023-12-11T23:33:40.806Z,99.91
2023-12-11T23:36:09.978Z,99.96
2023-12-11T23:38:38.281Z,100.00
2023-12-11T23:41:06.682Z,100.00
2023-12-11T23:43:35.326Z,99.97
2023-12-11T23:46:03.771Z,99.45
2023-12-11T23:48:32.379Z,98.66
2023-12-11T23:51:00.888Z,97.52
2023-12-11T23:53:29.234Z,97.69
2023-12-11T23:55:57.406Z,98.32
2023-12-11T23:58:25.706Z,98.34
